Meteo Giornale » Osservazioni meteo Francia » Chambery-Aix-Les-Bains

ore: 11:00 - Osservazioni Meteo Chambery-Aix-Les-Bains
Lat. 45° 39' N Lon. 5° 53' E Alt. 235 metri s.l.m.

sereno Europe/Paris

26 °C

Sereno

Temp. 24 Ore

15 °C

30 °C

Nord

5.5 Km/h

Dew point 18 °C

Umidità 61 %

Visibilità  3 Km

Il sole sorge alle ore 05:44

Il sole tramonta alle ore 21:29

Data e Ora Cielo e Fenomeni T °C DP °C Um. % Pres. hPa Vis. km Vento km/h
Oggi h: 11:00 sereno Sereno 26 18 61 1018 3 N 5.5
Oggi h: 10:30 sereno Sereno 26 17 57 1018 10 N 3.7
Oggi h: 10:00 sereno Sereno 25 16 57 1018 10 N 3.7
Oggi h: 09:30 sereno Sereno 24 16 60 1019 10 N 3.7
Oggi h: 09:00 sereno Sereno 23 17 68 1019 10 N 0
Oggi h: 08:30 sereno Sereno 23 16 64 1019 10 N 0
Oggi h: 08:00 sereno Sereno 20 16 77 1018 10 N 1.8
Oggi h: 07:30 sereno Sereno 18 16 88 1018 10 N 3.7
Oggi h: 07:00 sereno Sereno 16 15 93 1018 10 N 1.8
Oggi h: 06:30 sereno Sereno 15 15 100 1018 10 N 1.8
Oggi h: 06:00 sereno Sereno 15 15 100 1018 10 N 3.7
Oggi h: 05:30 sereno Sereno 15 15 100 1018 10 N 1.8
Oggi h: 05:00 sereno Sereno 16 15 93 1018 10 N 1.8
Oggi h: 04:30 sereno Sereno 16 15 93 1018 10 N 3.7
Oggi h: 04:00 sereno Sereno 16 15 93 1018 10 N 1.8
Oggi h: 03:30 sereno Sereno 16 15 93 1018 10 N 3.7
Oggi h: 03:00 sereno Sereno 17 15 88 1018 10 N 0
Oggi h: 02:30 sereno Sereno 17 15 88 1018 10 N 3.7
Oggi h: 02:00 sereno Sereno 17 15 88 1018 10 N 3.7
Oggi h: 01:30 sereno Sereno 17 15 88 1017 10 N 1.8
Oggi h: 00:30 sereno Sereno 17 15 88 1017 10 N 1.8
Oggi h: 00:00 sereno Sereno 18 16 88 1017 10 N 5.5
Ieri h: 23:30 sereno Sereno 19 16 82 1017 10 N 0
Ieri h: 22:30 sereno Sereno 20 17 82 1017 10 N 0
Ieri h: 22:00 sereno Sereno 20 17 82 1017 10 N 1.8
Ieri h: 21:30 sereno Sereno 22 17 73 1016 10 N 1.8
Ieri h: 21:00 sereno Sereno 23 18 73 1016 10 N 3.7
Ieri h: 20:30 sereno Sereno 25 18 65 1016 10 N 0
Ieri h: 20:00 sereno Sereno 28 17 51 1016 10 N 3.7
Ieri h: 19:30 sereno Sereno 29 18 51 1016 10 N 5.5
Ieri h: 19:00 sereno Sereno 30 19 51 1016 10 N 3.7
Ieri h: 18:30 sereno Sereno 30 18 48 1016 10 N/NE 7.4
Ieri h: 17:30 sereno Sereno 30 19 51 1017 10 N/NE 7.4
Ieri h: 17:00 sereno Sereno 30 18 48 1017 10 N 5.5
Ieri h: 16:30 sereno Sereno 29 18 51 1017 10 N 7.4
Ieri h: 16:00 sereno Sereno 29 17 48 1017 10 N/NO 9.3
Ieri h: 15:30 sereno Sereno 29 17 48 1017 10 N 9.3
Ieri h: 15:00 sereno Sereno 29 18 51 1018 10 N/NO 11.1
Ieri h: 14:30 sereno Sereno 28 18 54 1018 10 N/NO 9.3
Ieri h: 14:00 sereno Sereno 27 17 54 1018 10 N/NO 11.1
Ieri h: 13:30 sereno Sereno 27 17 54 1018 10 N/NO 11.1
Ieri h: 13:00 sereno Sereno 27 15 47 1019 10 N/NO 11.1
Ieri h: 12:30 sereno Sereno 26 16 54 1019 10 NO 9.3
Ieri h: 12:00 poco_nuvoloso Poco Nuvoloso 26 14 47 1019 10 N/NO 9.3